• Join FlightAware (Why Join?)
  • Login
  • US Flag 
10:22PM EST


 

Airport Tracker/Info


-or-


 

Live Flight TrackerFlight Track Log ✈ SWA2894 ✈ 10-Jun-2013 ✈ KLAX - KTUS

Flight Track Log - Related Links

Times and Time Zones

All times are in EDT time to prevent confusion due to time zone crossing. See the SWA2894 flight status page for this flight to view local times or setup timezone preferences in your user account.

Time Position Orientation Groundspeed Altitude Reporting Facility
EDT Latitude Longitude Course Direction KTS MPH feet Rate Location/Type
02:14PM 33.9414 -118.4511 224° Southwest 145 167 1,500  Level Los Angeles Center
02:15PM 33.8936 -118.5069 224° Southwest 225 259 3,400 2,280 Climbing Los Angeles Center
02:16PM 33.8339 -118.5283 197° South 262 302 6,300 3,480 Climbing Los Angeles Center
02:17PM 33.7431 -118.5239 178° South 275 316 10,600 3,420 Climbing Los Angeles Center
02:18PM 33.6769 -118.4575 140° Southeast 355 409 13,400 2,700 Climbing Los Angeles Center
02:19PM 33.6447 -118.3383 108° East 381 438 16,300 2,940 Climbing Los Angeles Center
02:20PM 33.6444 -118.1764 90° East 416 479 19,600 2,880 Climbing Los Angeles Center
02:21PM 33.6439 -118.0336 90° East 430 495 22,300 2,100 Climbing Los Angeles Center
02:22PM 33.6439 -117.8847 90° East 446 513 24,000 1,620 Climbing Los Angeles Center
02:23PM 33.6439 -117.7306 90° East 460 529 25,700 1,800 Climbing Los Angeles Center
02:24PM 33.6436 -117.5753 90° East 467 537 27,800 1,920 Climbing Los Angeles Center
02:25PM 33.6417 -117.4147 91° East 479 551 29,700 1,860 Climbing Los Angeles Center
02:27PM 33.6378 -117.1853 91° East 493 567 32,100 1,740 Climbing Los Angeles Center
02:28PM 33.6131 -117.0211 100° East 498 573 33,800 1,740 Climbing Los Angeles Center
02:29PM 33.5917 -116.8581 99° East 498 573 35,700 1,740 Climbing Los Angeles Center
02:30PM 33.5675 -116.6758 99° East 490 564 37,500 1,500 Climbing Los Angeles Center
02:31PM 33.5464 -116.5158 99° East 485 558 38,800 720 Climbing Los Angeles Center
02:32PM 33.5247 -116.3572 99° East 482 555 39,000  Climbing Los Angeles Center
02:33PM 33.5028 -116.1992 99° East 479 551 38,900  Descending Los Angeles Center
02:34PM 33.4786 -116.0411 100° East 481 554 39,000  Climbing Los Angeles Center
02:35PM 33.4558 -115.8825 100° East 482 555 39,000  Level Los Angeles Center
02:36PM 33.4339 -115.7236 99° East 483 556 39,000  Level Los Angeles Center
02:37PM 33.4106 -115.5664 100° East 481 554 39,000  Level Los Angeles Center
02:38PM 33.3814 -115.3786 100° East 478 550 39,000  Level Los Angeles Center
02:39PM 33.3594 -115.2222 99° East 478 550 39,000  Level Los Angeles Center
02:40PM 33.3358 -115.0678 100° East 474 545 39,000  Level Los Angeles Center
02:41PM 33.3125 -114.9142 100° East 471 542 39,000  Level Los Angeles Center
02:42PM 33.2900 -114.7586 100° East 477 549 39,000  Level Los Angeles Center
02:43PM 33.2661 -114.6069 101° East 467 537 39,000  Level Los Angeles Center
02:44PM 33.2389 -114.4236 100° East 470 541 39,000  Level Los Angeles Center
02:45PM 33.2167 -114.2703 100° East 470 541 39,000  Level Los Angeles Center
02:46PM 33.1922 -114.1181 101° East 468 539 39,000  Level Los Angeles Center
02:47PM 33.1814 -114.0361 99° East 469 540 39,000  Level Albuquerque Center
02:48PM 33.1572 -113.8833 101° East 469 540 39,000  Level Albuquerque Center
02:48PM 33.1444 -113.8114 102° East 472 543 39,000  Level Los Angeles Center
02:49PM 33.1186 -113.6608 102° East 466 536 39,000  Level Los Angeles Center
02:50PM 33.1058 -113.5803 101° East 466 536 39,000 -540 Level Albuquerque Center
02:51PM 33.0811 -113.4289 101° East 464 534 38,200 -1,020 Descending Albuquerque Center
02:52PM 33.0519 -113.2475 101° East 464 534 37,000 -1,080 Descending Albuquerque Center
02:53PM 33.0281 -113.0947 101° East 467 537 36,100 -1,620 Descending Albuquerque Center
02:54PM 33.0028 -112.9453 101° East 461 531 33,800 -2,520 Descending Albuquerque Center
02:55PM 32.9778 -112.7969 101° East 457 526 31,000 -2,760 Descending Albuquerque Center
02:56PM 32.9478 -112.6522 104° East 452 520 28,200 -2,460 Descending Albuquerque Center
02:57PM 32.8978 -112.5219 115° Southeast 433 498 26,000 -1,440 Descending Albuquerque Center
02:58PM 32.8483 -112.3942 115° Southeast 426 490 25,300 -1,320 Descending Albuquerque Center
02:59PM 32.8003 -112.2700 115° Southeast 418 481 23,400 -2,160 Descending Albuquerque Center
03:00PM 32.7503 -112.1375 114° Southeast 399 459 20,900 -2,280 Descending Albuquerque Center
03:01PM 32.7058 -112.0247 115° Southeast 387 445 18,700 -2,040 Descending Albuquerque Center
03:02PM 32.6622 -111.9128 115° Southeast 378 435 16,800 -1,920 Descending Albuquerque Center
03:03PM 32.6208 -111.8081 115° Southeast 359 413 14,800 -2,040 Descending Albuquerque Center
03:04PM 32.5811 -111.7042 114° Southeast 349 402 12,700 -1,860 Descending Albuquerque Center
03:05PM 32.5372 -111.6033 117° Southeast 346 398 11,000 -1,440 Descending Albuquerque Center
03:05PM 32.5100 -111.5669 132° Southeast 340 391 10,900 -120 Descending Albuquerque Center
03:06PM 32.4728 -111.5047 125° Southeast 323 372 10,900 -180 Level Albuquerque Center
03:07PM 32.4261 -111.4189 123° Southeast 313 360 10,600 -960 Descending Albuquerque Center
03:08PM 32.3772 -111.3339 124° Southeast 313 360 9,000 -1,320 Descending Albuquerque Center
03:09PM 32.3306 -111.2511 124° Southeast 307 353 7,900 -1,020 Descending Albuquerque Center
03:10PM 32.2867 -111.1747 124° Southeast 290 334 7,000 -720 Descending Albuquerque Center
03:11PM 32.2511 -111.1069 122° Southeast 268 308 6,500 -900 Descending Albuquerque Center
03:12PM 32.2169 -111.0531 127° Southeast 233 268 5,200 -1,260 Descending Albuquerque Center
03:13PM 32.1750 -111.0033 135° Southeast 221 254 3,900 -1,140 Descending Albuquerque Center
03:15PM 32.1314 -110.9575 138° Southeast 153 176 2,800 -1,020 Descending Albuquerque Center
03:17PM 32.1161 -110.9410 128° Southeast  Level Estimated